sensor_id;sensor_type;location;lat;lon;timestamp;P1;durP1;ratioP1;P2;durP2;ratioP2
49548;SDS011;35450;44.518;7.466;2024-02-23T07:17:34;25.23;;;16.30;;
49548;SDS011;35450;44.518;7.466;2024-02-23T07:20:38;25.42;;;15.43;;
49548;SDS011;35450;44.518;7.466;2024-02-23T07:23:42;24.92;;;15.15;;
49548;SDS011;35450;44.518;7.466;2024-02-23T07:26:47;21.15;;;13.43;;
49548;SDS011;35450;44.518;7.466;2024-02-23T07:29:51;19.00;;;12.98;;
49548;SDS011;35450;44.518;7.466;2024-02-23T07:32:55;24.60;;;13.93;;
49548;SDS011;35450;44.518;7.466;2024-02-23T07:35:59;23.23;;;14.27;;
49548;SDS011;35450;44.518;7.466;2024-02-23T07:39:03;21.13;;;13.88;;
49548;SDS011;35450;44.518;7.466;2024-02-23T07:42:07;22.33;;;14.80;;
49548;SDS011;35450;44.518;7.466;2024-02-23T07:45:13;27.42;;;17.27;;
49548;SDS011;35450;44.518;7.466;2024-02-23T07:48:17;30.33;;;18.73;;
49548;SDS011;35450;44.518;7.466;2024-02-23T07:51:21;30.65;;;19.30;;
49548;SDS011;35450;44.518;7.466;2024-02-23T07:54:25;31.33;;;17.27;;
49548;SDS011;35450;44.518;7.466;2024-02-23T07:57:30;28.17;;;17.45;;
49548;SDS011;35450;44.518;7.466;2024-02-23T08:00:35;30.60;;;18.15;;
49548;SDS011;35450;44.518;7.466;2024-02-23T08:03:41;29.92;;;17.42;;
49548;SDS011;35450;44.518;7.466;2024-02-23T08:06:45;30.33;;;17.23;;
49548;SDS011;35450;44.518;7.466;2024-02-23T08:09:49;29.50;;;17.85;;
49548;SDS011;35450;44.518;7.466;2024-02-23T08:12:53;33.08;;;18.83;;
49548;SDS011;35450;44.518;7.466;2024-02-23T08:15:58;27.25;;;17.45;;
49548;SDS011;35450;44.518;7.466;2024-02-23T08:19:02;30.30;;;18.83;;
49548;SDS011;35450;44.518;7.466;2024-02-23T08:22:06;34.78;;;20.02;;
49548;SDS011;35450;44.518;7.466;2024-02-23T08:25:10;34.95;;;21.10;;
49548;SDS011;35450;44.518;7.466;2024-02-23T08:28:15;35.97;;;20.95;;
49548;SDS011;35450;44.518;7.466;2024-02-23T08:31:19;37.40;;;21.60;;
49548;SDS011;35450;44.518;7.466;2024-02-23T08:34:23;35.50;;;20.10;;
49548;SDS011;35450;44.518;7.466;2024-02-23T08:37:28;34.88;;;20.65;;
49548;SDS011;35450;44.518;7.466;2024-02-23T08:40:32;29.77;;;18.65;;
49548;SDS011;35450;44.518;7.466;2024-02-23T08:43:38;34.00;;;20.02;;
49548;SDS011;35450;44.518;7.466;2024-02-23T08:46:42;37.45;;;20.88;;
49548;SDS011;35450;44.518;7.466;2024-02-23T08:49:46;34.60;;;20.73;;
49548;SDS011;35450;44.518;7.466;2024-02-23T08:52:50;36.30;;;21.13;;
49548;SDS011;35450;44.518;7.466;2024-02-23T08:55:54;38.83;;;21.83;;
49548;SDS011;35450;44.518;7.466;2024-02-23T08:58:58;33.10;;;19.50;;
49548;SDS011;35450;44.518;7.466;2024-02-23T09:02:02;33.45;;;20.17;;
49548;SDS011;35450;44.518;7.466;2024-02-23T09:05:06;34.30;;;20.42;;
49548;SDS011;35450;44.518;7.466;2024-02-23T09:08:10;32.33;;;19.88;;
49548;SDS011;35450;44.518;7.466;2024-02-23T09:11:14;33.58;;;18.98;;
49548;SDS011;35450;44.518;7.466;2024-02-23T09:14:18;39.17;;;19.98;;
49548;SDS011;35450;44.518;7.466;2024-02-23T09:17:22;32.03;;;19.65;;
49548;SDS011;35450;44.518;7.466;2024-02-23T09:20:27;34.40;;;20.13;;
49548;SDS011;35450;44.518;7.466;2024-02-23T09:23:31;34.50;;;20.70;;
49548;SDS011;35450;44.518;7.466;2024-02-23T09:26:36;41.67;;;24.30;;
49548;SDS011;35450;44.518;7.466;2024-02-23T09:29:40;43.00;;;24.73;;
49548;SDS011;35450;44.518;7.466;2024-02-23T09:32:46;37.47;;;21.70;;
49548;SDS011;35450;44.518;7.466;2024-02-23T09:35:50;44.13;;;25.45;;
49548;SDS011;35450;44.518;7.466;2024-02-23T09:38:57;34.47;;;20.35;;
49548;SDS011;35450;44.518;7.466;2024-02-23T09:42:01;34.40;;;20.45;;
49548;SDS011;35450;44.518;7.466;2024-02-23T09:45:06;32.53;;;19.45;;
49548;SDS011;35450;44.518;7.466;2024-02-23T09:48:12;30.45;;;18.13;;
49548;SDS011;35450;44.518;7.466;2024-02-23T09:51:18;27.95;;;17.13;;
49548;SDS011;35450;44.518;7.466;2024-02-23T09:54:24;28.75;;;17.33;;
49548;SDS011;35450;44.518;7.466;2024-02-23T09:57:28;30.02;;;18.30;;
49548;SDS011;35450;44.518;7.466;2024-02-23T10:00:32;27.40;;;15.85;;
49548;SDS011;35450;44.518;7.466;2024-02-23T10:03:38;33.20;;;18.65;;
49548;SDS011;35450;44.518;7.466;2024-02-23T10:06:43;29.50;;;16.50;;
49548;SDS011;35450;44.518;7.466;2024-02-23T10:09:47;18.50;;;12.50;;
49548;SDS011;35450;44.518;7.466;2024-02-23T10:12:51;24.10;;;13.43;;
49548;SDS011;35450;44.518;7.466;2024-02-23T10:15:56;23.02;;;13.40;;
49548;SDS011;35450;44.518;7.466;2024-02-23T10:18:59;21.08;;;12.48;;
49548;SDS011;35450;44.518;7.466;2024-02-23T10:22:04;19.73;;;12.38;;
49548;SDS011;35450;44.518;7.466;2024-02-23T10:25:09;21.58;;;13.23;;
49548;SDS011;35450;44.518;7.466;2024-02-23T10:28:13;23.48;;;14.27;;
49548;SDS011;35450;44.518;7.466;2024-02-23T10:31:17;22.50;;;14.57;;
49548;SDS011;35450;44.518;7.466;2024-02-23T10:34:22;26.30;;;14.65;;
49548;SDS011;35450;44.518;7.466;2024-02-23T10:37:28;27.02;;;15.38;;
49548;SDS011;35450;44.518;7.466;2024-02-23T10:40:33;25.90;;;16.10;;
49548;SDS011;35450;44.518;7.466;2024-02-23T10:43:49;27.23;;;16.80;;
49548;SDS011;35450;44.518;7.466;2024-02-23T10:46:54;21.77;;;13.48;;
49548;SDS011;35450;44.518;7.466;2024-02-23T10:50:02;22.15;;;13.27;;
49548;SDS011;35450;44.518;7.466;2024-02-23T10:53:07;22.95;;;14.60;;
49548;SDS011;35450;44.518;7.466;2024-02-23T10:56:13;19.45;;;13.20;;
49548;SDS011;35450;44.518;7.466;2024-02-23T10:59:17;24.85;;;15.30;;
49548;SDS011;35450;44.518;7.466;2024-02-23T11:02:22;20.45;;;13.80;;
49548;SDS011;35450;44.518;7.466;2024-02-23T11:05:27;19.13;;;13.20;;
49548;SDS011;35450;44.518;7.466;2024-02-23T11:08:34;17.20;;;12.07;;
49548;SDS011;35450;44.518;7.466;2024-02-23T11:11:39;18.45;;;12.63;;
49548;SDS011;35450;44.518;7.466;2024-02-23T11:14:58;18.27;;;12.45;;
49548;SDS011;35450;44.518;7.466;2024-02-23T11:18:03;23.33;;;14.13;;
49548;SDS011;35450;44.518;7.466;2024-02-23T11:21:09;19.77;;;13.55;;
49548;SDS011;35450;44.518;7.466;2024-02-23T11:24:16;22.20;;;13.48;;
49548;SDS011;35450;44.518;7.466;2024-02-23T11:27:20;14.75;;;10.82;;
49548;SDS011;35450;44.518;7.466;2024-02-23T11:30:28;17.65;;;10.68;;
49548;SDS011;35450;44.518;7.466;2024-02-23T11:33:35;18.55;;;12.57;;
49548;SDS011;35450;44.518;7.466;2024-02-23T11:36:40;17.63;;;12.60;;
49548;SDS011;35450;44.518;7.466;2024-02-23T11:39:45;16.85;;;11.57;;
49548;SDS011;35450;44.518;7.466;2024-02-23T11:42:49;13.18;;;9.50;;
49548;SDS011;35450;44.518;7.466;2024-02-23T11:45:55;13.13;;;9.20;;
49548;SDS011;35450;44.518;7.466;2024-02-23T11:48:59;11.73;;;8.35;;
49548;SDS011;35450;44.518;7.466;2024-02-23T11:52:04;11.50;;;8.52;;
49548;SDS011;35450;44.518;7.466;2024-02-23T11:55:08;10.63;;;7.47;;
49548;SDS011;35450;44.518;7.466;2024-02-23T11:58:12;10.23;;;7.85;;
49548;SDS011;35450;44.518;7.466;2024-02-23T12:01:16;13.52;;;8.20;;
49548;SDS011;35450;44.518;7.466;2024-02-23T12:04:20;11.13;;;9.27;;
49548;SDS011;35450;44.518;7.466;2024-02-23T12:07:24;11.75;;;8.35;;
49548;SDS011;35450;44.518;7.466;2024-02-23T12:10:29;12.32;;;9.20;;
49548;SDS011;35450;44.518;7.466;2024-02-23T12:13:33;10.45;;;7.25;;
49548;SDS011;35450;44.518;7.466;2024-02-23T12:16:41;13.27;;;8.60;;
49548;SDS011;35450;44.518;7.466;2024-02-23T12:19:45;10.25;;;6.95;;
49548;SDS011;35450;44.518;7.466;2024-02-23T12:22:49;13.07;;;9.35;;
49548;SDS011;35450;44.518;7.466;2024-02-23T12:25:56;11.70;;;7.93;;
49548;SDS011;35450;44.518;7.466;2024-02-23T12:29:01;11.10;;;8.32;;
49548;SDS011;35450;44.518;7.466;2024-02-23T12:32:07;10.55;;;7.47;;
49548;SDS011;35450;44.518;7.466;2024-02-23T12:35:11;11.02;;;8.00;;
49548;SDS011;35450;44.518;7.466;2024-02-23T12:38:16;17.20;;;11.55;;
49548;SDS011;35450;44.518;7.466;2024-02-23T12:41:20;13.48;;;9.52;;
49548;SDS011;35450;44.518;7.466;2024-02-23T12:44:24;15.43;;;9.73;;
49548;SDS011;35450;44.518;7.466;2024-02-23T12:47:28;22.70;;;13.18;;
49548;SDS011;35450;44.518;7.466;2024-02-23T12:50:32;18.15;;;12.32;;
49548;SDS011;35450;44.518;7.466;2024-02-23T12:53:37;17.90;;;12.70;;
49548;SDS011;35450;44.518;7.466;2024-02-23T12:56:43;25.77;;;16.88;;
49548;SDS011;35450;44.518;7.466;2024-02-23T12:59:47;25.20;;;17.83;;
49548;SDS011;35450;44.518;7.466;2024-02-23T13:02:51;23.60;;;16.10;;
49548;SDS011;35450;44.518;7.466;2024-02-23T13:05:56;23.13;;;16.55;;
49548;SDS011;35450;44.518;7.466;2024-02-23T13:09:00;24.80;;;16.05;;
49548;SDS011;35450;44.518;7.466;2024-02-23T13:12:06;22.83;;;15.60;;
49548;SDS011;35450;44.518;7.466;2024-02-23T13:15:10;23.33;;;15.50;;
49548;SDS011;35450;44.518;7.466;2024-02-23T13:18:14;21.83;;;15.57;;
49548;SDS011;35450;44.518;7.466;2024-02-23T13:21:19;20.40;;;14.23;;
49548;SDS011;35450;44.518;7.466;2024-02-23T13:24:23;19.60;;;14.40;;
49548;SDS011;35450;44.518;7.466;2024-02-23T13:27:27;22.85;;;15.45;;
49548;SDS011;35450;44.518;7.466;2024-02-23T13:30:33;21.50;;;15.32;;
49548;SDS011;35450;44.518;7.466;2024-02-23T13:33:38;19.25;;;14.15;;
49548;SDS011;35450;44.518;7.466;2024-02-23T13:36:42;16.08;;;12.20;;
49548;SDS011;35450;44.518;7.466;2024-02-23T13:39:47;15.23;;;11.70;;
49548;SDS011;35450;44.518;7.466;2024-02-23T13:42:52;16.73;;;11.57;;
49548;SDS011;35450;44.518;7.466;2024-02-23T13:45:56;16.70;;;12.35;;
49548;SDS011;35450;44.518;7.466;2024-02-23T13:49:04;16.65;;;12.07;;
49548;SDS011;35450;44.518;7.466;2024-02-23T13:52:10;15.82;;;11.50;;
49548;SDS011;35450;44.518;7.466;2024-02-23T13:55:15;14.40;;;10.73;;
49548;SDS011;35450;44.518;7.466;2024-02-23T13:58:19;16.83;;;12.48;;
49548;SDS011;35450;44.518;7.466;2024-02-23T14:01:23;18.48;;;12.02;;
49548;SDS011;35450;44.518;7.466;2024-02-23T14:04:28;16.67;;;11.40;;
49548;SDS011;35450;44.518;7.466;2024-02-23T14:07:35;14.20;;;11.20;;
49548;SDS011;35450;44.518;7.466;2024-02-23T14:10:39;17.27;;;11.50;;
49548;SDS011;35450;44.518;7.466;2024-02-23T14:13:44;16.23;;;11.52;;
49548;SDS011;35450;44.518;7.466;2024-02-23T14:16:49;15.80;;;11.05;;
49548;SDS011;35450;44.518;7.466;2024-02-23T14:19:53;14.50;;;10.02;;
49548;SDS011;35450;44.518;7.466;2024-02-23T14:22:57;13.50;;;10.50;;
49548;SDS011;35450;44.518;7.466;2024-02-23T14:26:02;14.45;;;10.68;;
49548;SDS011;35450;44.518;7.466;2024-02-23T14:29:07;14.65;;;10.48;;
49548;SDS011;35450;44.518;7.466;2024-02-23T14:32:14;16.25;;;11.20;;
49548;SDS011;35450;44.518;7.466;2024-02-23T14:35:20;14.40;;;10.57;;
49548;SDS011;35450;44.518;7.466;2024-02-23T14:38:25;14.75;;;10.40;;
49548;SDS011;35450;44.518;7.466;2024-02-23T14:41:29;14.85;;;10.13;;
49548;SDS011;35450;44.518;7.466;2024-02-23T14:44:37;14.68;;;10.77;;
49548;SDS011;35450;44.518;7.466;2024-02-23T14:47:41;12.80;;;9.43;;
49548;SDS011;35450;44.518;7.466;2024-02-23T14:50:47;14.63;;;10.00;;
49548;SDS011;35450;44.518;7.466;2024-02-23T14:53:51;15.40;;;10.93;;
49548;SDS011;35450;44.518;7.466;2024-02-23T14:56:55;15.82;;;10.73;;
49548;SDS011;35450;44.518;7.466;2024-02-23T15:00:00;16.73;;;10.43;;
49548;SDS011;35450;44.518;7.466;2024-02-23T15:03:04;18.20;;;11.68;;
49548;SDS011;35450;44.518;7.466;2024-02-23T15:06:08;16.40;;;12.85;;
49548;SDS011;35450;44.518;7.466;2024-02-23T15:09:13;19.02;;;12.93;;
49548;SDS011;35450;44.518;7.466;2024-02-23T15:12:18;16.90;;;12.00;;
49548;SDS011;35450;44.518;7.466;2024-02-23T15:15:22;14.95;;;11.35;;
49548;SDS011;35450;44.518;7.466;2024-02-23T15:18:26;15.48;;;12.05;;
49548;SDS011;35450;44.518;7.466;2024-02-23T15:21:30;18.83;;;11.90;;
49548;SDS011;35450;44.518;7.466;2024-02-23T15:24:34;17.67;;;11.85;;
49548;SDS011;35450;44.518;7.466;2024-02-23T15:27:39;16.70;;;12.18;;
49548;SDS011;35450;44.518;7.466;2024-02-23T15:30:43;16.67;;;11.85;;
49548;SDS011;35450;44.518;7.466;2024-02-23T15:33:47;17.77;;;11.50;;
49548;SDS011;35450;44.518;7.466;2024-02-23T15:36:51;15.98;;;11.63;;
49548;SDS011;35450;44.518;7.466;2024-02-23T15:39:56;15.35;;;11.15;;
49548;SDS011;35450;44.518;7.466;2024-02-23T15:43:00;15.82;;;11.48;;
49548;SDS011;35450;44.518;7.466;2024-02-23T15:46:04;18.75;;;11.45;;
49548;SDS011;35450;44.518;7.466;2024-02-23T15:49:08;14.02;;;10.40;;
49548;SDS011;35450;44.518;7.466;2024-02-23T15:52:12;14.10;;;10.57;;
49548;SDS011;35450;44.518;7.466;2024-02-23T15:55:17;16.63;;;10.32;;
49548;SDS011;35450;44.518;7.466;2024-02-23T15:58:21;16.67;;;10.63;;
49548;SDS011;35450;44.518;7.466;2024-02-23T16:01:25;16.48;;;11.18;;
49548;SDS011;35450;44.518;7.466;2024-02-23T16:04:29;16.98;;;10.25;;
49548;SDS011;35450;44.518;7.466;2024-02-23T16:07:36;15.07;;;11.00;;
49548;SDS011;35450;44.518;7.466;2024-02-23T16:10:40;15.23;;;10.30;;
49548;SDS011;35450;44.518;7.466;2024-02-23T16:13:44;17.70;;;10.18;;
49548;SDS011;35450;44.518;7.466;2024-02-23T16:16:48;14.75;;;10.98;;
49548;SDS011;35450;44.518;7.466;2024-02-23T16:19:53;16.40;;;11.25;;
49548;SDS011;35450;44.518;7.466;2024-02-23T16:22:58;15.05;;;11.20;;
49548;SDS011;35450;44.518;7.466;2024-02-23T16:26:02;16.55;;;11.18;;
49548;SDS011;35450;44.518;7.466;2024-02-23T16:29:06;14.95;;;10.35;;
49548;SDS011;35450;44.518;7.466;2024-02-23T16:32:11;16.35;;;11.50;;
49548;SDS011;35450;44.518;7.466;2024-02-23T16:35:16;16.15;;;12.07;;
49548;SDS011;35450;44.518;7.466;2024-02-23T16:38:22;17.73;;;12.57;;
49548;SDS011;35450;44.518;7.466;2024-02-23T16:41:26;22.73;;;12.93;;
49548;SDS011;35450;44.518;7.466;2024-02-23T16:44:31;15.50;;;11.52;;
49548;SDS011;35450;44.518;7.466;2024-02-23T16:47:35;17.10;;;11.07;;
49548;SDS011;35450;44.518;7.466;2024-02-23T16:50:39;17.98;;;12.82;;
49548;SDS011;35450;44.518;7.466;2024-02-23T16:53:44;22.60;;;15.77;;
49548;SDS011;35450;44.518;7.466;2024-02-23T16:56:49;22.20;;;15.27;;
49548;SDS011;35450;44.518;7.466;2024-02-23T16:59:53;18.25;;;13.35;;
49548;SDS011;35450;44.518;7.466;2024-02-23T17:02:57;31.65;;;19.92;;
49548;SDS011;35450;44.518;7.466;2024-02-23T17:06:04;23.30;;;14.82;;
49548;SDS011;35450;44.518;7.466;2024-02-23T17:09:08;17.25;;;12.13;;
49548;SDS011;35450;44.518;7.466;2024-02-23T17:12:14;17.98;;;11.13;;
49548;SDS011;35450;44.518;7.466;2024-02-23T17:15:21;20.75;;;12.50;;
49548;SDS011;35450;44.518;7.466;2024-02-23T17:18:25;18.70;;;11.70;;
49548;SDS011;35450;44.518;7.466;2024-02-23T17:21:30;23.60;;;16.17;;
49548;SDS011;35450;44.518;7.466;2024-02-23T17:24:34;18.67;;;11.48;;
49548;SDS011;35450;44.518;7.466;2024-02-23T17:27:38;22.60;;;12.10;;
49548;SDS011;35450;44.518;7.466;2024-02-23T17:30:42;20.58;;;11.57;;
49548;SDS011;35450;44.518;7.466;2024-02-23T17:33:46;15.10;;;10.60;;
49548;SDS011;35450;44.518;7.466;2024-02-23T17:36:50;21.42;;;12.90;;
49548;SDS011;35450;44.518;7.466;2024-02-23T17:39:54;23.67;;;14.68;;
49548;SDS011;35450;44.518;7.466;2024-02-23T17:43:01;37.10;;;18.42;;
49548;SDS011;35450;44.518;7.466;2024-02-23T17:46:05;24.13;;;13.02;;
49548;SDS011;35450;44.518;7.466;2024-02-23T17:49:11;24.55;;;13.48;;
49548;SDS011;35450;44.518;7.466;2024-02-23T17:52:15;23.75;;;13.23;;
49548;SDS011;35450;44.518;7.466;2024-02-23T17:55:19;27.42;;;13.88;;
49548;SDS011;35450;44.518;7.466;2024-02-23T17:58:26;82.70;;;41.25;;
49548;SDS011;35450;44.518;7.466;2024-02-23T18:01:31;53.03;;;28.52;;
49548;SDS011;35450;44.518;7.466;2024-02-23T18:04:38;20.15;;;11.90;;
49548;SDS011;35450;44.518;7.466;2024-02-23T18:07:42;22.70;;;10.23;;
49548;SDS011;35450;44.518;7.466;2024-02-23T18:10:46;32.40;;;15.73;;
49548;SDS011;35450;44.518;7.466;2024-02-23T18:13:51;30.38;;;14.75;;
49548;SDS011;35450;44.518;7.466;2024-02-23T18:16:57;21.95;;;11.63;;
49548;SDS011;35450;44.518;7.466;2024-02-23T18:20:01;16.55;;;11.43;;
49548;SDS011;35450;44.518;7.466;2024-02-23T18:23:05;23.55;;;10.82;;
49548;SDS011;35450;44.518;7.466;2024-02-23T18:26:15;22.08;;;11.27;;
49548;SDS011;35450;44.518;7.466;2024-02-23T18:29:19;19.17;;;11.93;;
49548;SDS011;35450;44.518;7.466;2024-02-23T18:32:23;18.70;;;10.50;;
49548;SDS011;35450;44.518;7.466;2024-02-23T18:35:27;18.98;;;9.73;;
49548;SDS011;35450;44.518;7.466;2024-02-23T18:38:33;14.27;;;9.70;;
49548;SDS011;35450;44.518;7.466;2024-02-23T18:41:37;18.73;;;10.88;;
49548;SDS011;35450;44.518;7.466;2024-02-23T18:44:41;22.10;;;11.60;;
49548;SDS011;35450;44.518;7.466;2024-02-23T18:47:45;19.48;;;10.48;;
49548;SDS011;35450;44.518;7.466;2024-02-23T18:50:49;15.85;;;10.20;;
49548;SDS011;35450;44.518;7.466;2024-02-23T18:53:54;37.33;;;22.30;;
49548;SDS011;35450;44.518;7.466;2024-02-23T18:56:59;44.30;;;27.23;;
49548;SDS011;35450;44.518;7.466;2024-02-23T19:00:04;19.80;;;11.02;;
49548;SDS011;35450;44.518;7.466;2024-02-23T19:03:10;13.77;;;9.90;;
49548;SDS011;35450;44.518;7.466;2024-02-23T19:06:14;17.42;;;12.52;;
49548;SDS011;35450;44.518;7.466;2024-02-23T19:09:18;18.05;;;12.07;;
49548;SDS011;35450;44.518;7.466;2024-02-23T19:12:24;17.73;;;11.75;;
49548;SDS011;35450;44.518;7.466;2024-02-23T19:15:28;16.73;;;9.82;;
49548;SDS011;35450;44.518;7.466;2024-02-23T19:18:33;13.30;;;9.77;;
49548;SDS011;35450;44.518;7.466;2024-02-23T19:21:37;16.45;;;9.88;;
49548;SDS011;35450;44.518;7.466;2024-02-23T19:24:41;14.98;;;9.60;;
49548;SDS011;35450;44.518;7.466;2024-02-23T19:27:45;13.20;;;9.25;;
49548;SDS011;35450;44.518;7.466;2024-02-23T19:30:49;12.48;;;9.13;;
49548;SDS011;35450;44.518;7.466;2024-02-23T19:33:54;15.82;;;10.82;;
49548;SDS011;35450;44.518;7.466;2024-02-23T19:36:58;12.38;;;8.85;;
49548;SDS011;35450;44.518;7.466;2024-02-23T19:40:03;15.23;;;9.15;;
49548;SDS011;35450;44.518;7.466;2024-02-23T19:43:08;12.43;;;8.98;;
49548;SDS011;35450;44.518;7.466;2024-02-23T19:46:12;12.55;;;8.77;;
49548;SDS011;35450;44.518;7.466;2024-02-23T19:49:20;11.82;;;8.95;;
